Time;durP1;ratioP1;P1;durP2;ratioP2;P2;SDS_P1;SDS_P2;PMS_P1;PMS_P2;Temp;Humidity;BMP_temperature;BMP_pressure;BME280_temperature;BME280_humidity;BME280_pressure;Samples;Min_cycle;Max_cycle;Signal;HPM_P1;HPM_P2
2022/01/07 00:01:10;;;;;;;20.75;5.45;;;4.00;97.30;;;;;;5070741;28;20056;-72
2022/01/07 00:03:35;;;;;;;22.27;5.90;;;4.00;97.40;;;;;;5070371;28;20048;-72
2022/01/07 00:06:01;;;;;;;15.77;5.25;;;4.00;97.30;;;;;;5071209;28;20021;-72
2022/01/07 00:08:28;;;;;;;14.63;5.45;;;4.00;97.30;;;;;;5070066;28;20123;-72
2022/01/07 00:10:55;;;;;;;24.40;5.50;;;4.00;97.30;;;;;;5069487;28;20119;-72
2022/01/07 00:13:21;;;;;;;21.25;5.28;;;4.00;97.30;;;;;;5069162;28;20090;-73
2022/01/07 00:15:46;;;;;;;26.63;5.50;;;4.10;97.20;;;;;;5069124;28;20036;-73
2022/01/07 00:18:12;;;;;;;18.45;4.63;;;4.00;97.10;;;;;;5069367;28;20075;-73
2022/01/07 00:20:39;;;;;;;18.65;4.80;;;4.10;97.20;;;;;;5070576;28;20043;-71
2022/01/07 00:23:05;;;;;;;20.88;4.60;;;4.10;97.10;;;;;;5068904;28;20092;-71
2022/01/07 00:25:31;;;;;;;17.83;5.18;;;4.00;97.10;;;;;;5070510;28;20029;-72
2022/01/07 00:27:57;;;;;;;13.15;4.60;;;4.00;97.10;;;;;;5069462;28;20162;-72
2022/01/07 00:30:23;;;;;;;16.85;4.75;;;4.00;97.20;;;;;;5070341;28;20111;-72
2022/01/07 00:32:50;;;;;;;17.98;5.53;;;4.00;97.10;;;;;;5070124;28;20535;-72
2022/01/07 00:35:17;;;;;;;13.45;4.45;;;4.00;97.10;;;;;;5070363;28;20039;-72
2022/01/07 00:37:44;;;;;;;14.25;5.05;;;3.90;97.00;;;;;;5069781;28;20028;-73
2022/01/07 00:40:13;;;;;;;16.85;5.15;;;4.00;97.00;;;;;;5070357;28;20494;-73
2022/01/07 00:42:39;;;;;;;18.05;5.45;;;4.00;97.00;;;;;;5070092;28;20203;-74
2022/01/07 00:45:05;;;;;;;26.70;5.20;;;3.90;97.00;;;;;;5070975;28;20121;-72
2022/01/07 00:47:30;;;;;;;20.80;4.30;;;3.90;97.00;;;;;;5069772;28;20464;-72
2022/01/07 00:49:58;;;;;;;18.67;4.93;;;3.90;97.10;;;;;;5070143;28;20108;-72
2022/01/07 00:52:24;;;;;;;17.02;4.53;;;3.90;97.10;;;;;;5070233;28;20037;-73
2022/01/07 00:54:50;;;;;;;22.77;5.70;;;4.00;97.00;;;;;;5070055;28;20025;-72
2022/01/07 00:57:15;;;;;;;14.75;4.40;;;4.00;97.00;;;;;;5068325;28;20029;-72
2022/01/07 00:59:42;;;;;;;12.90;4.15;;;4.00;96.90;;;;;;5069092;28;20035;-71
2022/01/07 01:02:08;;;;;;;20.90;5.15;;;4.00;96.90;;;;;;5070805;28;20131;-71
2022/01/07 01:04:33;;;;;;;14.88;4.15;;;4.00;96.90;;;;;;5073011;28;20041;-71
2022/01/07 01:06:59;;;;;;;16.73;4.45;;;4.00;96.90;;;;;;5073293;28;20040;-71
2022/01/07 01:09:25;;;;;;;23.83;4.72;;;4.00;96.90;;;;;;5073592;28;20025;-73
2022/01/07 01:11:50;;;;;;;22.48;5.07;;;4.10;97.00;;;;;;5073996;28;20020;-71
2022/01/07 01:14:16;;;;;;;16.25;5.03;;;4.00;96.90;;;;;;5073934;28;20056;-71
2022/01/07 01:16:44;;;;;;;16.45;4.35;;;4.00;96.90;;;;;;5072613;28;20031;-72
2022/01/07 01:19:10;;;;;;;14.18;4.55;;;4.10;96.80;;;;;;5071540;28;20028;-72
2022/01/07 01:21:36;;;;;;;15.88;3.95;;;4.10;96.90;;;;;;5073201;28;20026;-73
2022/01/07 01:24:02;;;;;;;14.38;4.80;;;4.10;96.80;;;;;;5073819;28;20450;-71
2022/01/07 01:26:28;;;;;;;15.55;4.15;;;4.10;96.80;;;;;;5073570;28;20028;-71
2022/01/07 01:28:53;;;;;;;20.10;5.07;;;4.10;96.80;;;;;;5072949;28;20055;-72
2022/01/07 01:31:19;;;;;;;16.48;4.13;;;4.10;96.70;;;;;;5072214;28;20040;-72
2022/01/07 01:33:45;;;;;;;19.92;4.25;;;4.10;96.80;;;;;;5073157;28;20036;-71
2022/01/07 01:36:12;;;;;;;20.30;5.55;;;4.10;96.80;;;;;;5073774;28;20435;-72
2022/01/07 01:38:39;;;;;;;11.20;3.95;;;4.10;96.90;;;;;;5072250;28;20056;-73
2022/01/07 01:41:05;;;;;;;17.80;4.45;;;4.10;96.80;;;;;;5072537;28;20119;-73
2022/01/07 01:43:31;;;;;;;18.13;4.65;;;4.20;96.70;;;;;;5072111;28;20046;-72
2022/01/07 01:45:57;;;;;;;14.43;4.60;;;4.10;96.60;;;;;;5072537;28;20032;-72
2022/01/07 01:48:23;;;;;;;17.23;3.90;;;4.10;96.70;;;;;;5073253;28;20029;-72
2022/01/07 01:50:50;;;;;;;20.48;4.78;;;4.20;96.70;;;;;;5072701;28;20024;-72
2022/01/07 01:53:16;;;;;;;14.80;4.30;;;4.20;96.70;;;;;;5071884;28;20102;-72
2022/01/07 01:55:42;;;;;;;21.98;4.78;;;4.20;96.60;;;;;;5073156;28;20037;-74
2022/01/07 01:58:08;;;;;;;12.93;3.72;;;4.20;96.60;;;;;;5072995;28;20032;-73
2022/01/07 02:00:34;;;;;;;18.23;4.70;;;4.20;96.50;;;;;;5072633;28;20032;-73
2022/01/07 02:03:00;;;;;;;14.10;4.13;;;4.30;96.50;;;;;;5072583;28;20048;-72
2022/01/07 02:05:26;;;;;;;16.67;3.72;;;4.30;96.50;;;;;;5072803;28;20032;-71
2022/01/07 02:07:53;;;;;;;16.90;4.05;;;4.40;96.50;;;;;;5072765;28;20413;-71
2022/01/07 02:10:19;;;;;;;25.38;5.00;;;4.40;96.50;;;;;;5072512;28;20105;-73
2022/01/07 02:12:46;;;;;;;17.85;4.82;;;4.40;96.80;;;;;;5072405;28;20029;-72
2022/01/07 02:15:13;;;;;;;22.02;4.78;;;4.40;96.40;;;;;;5073125;28;20031;-72
2022/01/07 02:17:43;;;;;;;11.80;3.87;;;4.40;96.40;;;;;;5072766;28;20035;-72
2022/01/07 02:20:10;;;;;;;11.15;3.58;;;4.40;96.30;;;;;;5072183;28;20253;-71
2022/01/07 02:22:36;;;;;;;18.13;4.10;;;4.50;96.30;;;;;;5072066;28;20060;-72
2022/01/07 02:25:03;;;;;;;12.98;3.80;;;4.50;96.20;;;;;;5072113;28;20029;-72
2022/01/07 02:27:30;;;;;;;14.93;4.05;;;4.50;96.30;;;;;;5072353;28;20438;-72
2022/01/07 02:29:55;;;;;;;19.33;4.07;;;4.60;96.30;;;;;;5072714;28;20107;-72
2022/01/07 02:32:21;;;;;;;17.73;4.07;;;4.50;96.20;;;;;;5071274;28;20170;-73
2022/01/07 02:34:48;;;;;;;16.60;3.97;;;4.50;96.10;;;;;;5070825;28;20029;-72
2022/01/07 02:37:15;;;;;;;15.90;3.80;;;4.50;96.10;;;;;;5051064;28;20025;-71
2022/01/07 02:39:41;;;;;;;8.20;3.97;;;4.50;96.20;;;;;;5052050;28;20025;-73
2022/01/07 02:42:07;;;;;;;22.27;3.97;;;4.50;96.20;;;;;;5056620;28;20024;-72
2022/01/07 02:44:33;;;;;;;18.48;4.00;;;4.50;96.20;;;;;;5071927;28;20033;-72
2022/01/07 02:46:59;;;;;;;17.55;3.67;;;4.50;96.10;;;;;;5071992;28;20039;-71
2022/01/07 02:49:24;;;;;;;11.45;4.05;;;4.50;96.10;;;;;;5071763;28;20469;-71
2022/01/07 02:51:50;;;;;;;19.25;3.85;;;4.60;96.20;;;;;;5071672;28;20036;-71
2022/01/07 02:54:16;;;;;;;12.05;3.85;;;4.60;96.10;;;;;;5071863;28;20032;-71
2022/01/07 02:56:41;;;;;;;12.65;4.28;;;4.70;96.10;;;;;;5070866;28;20025;-72
2022/01/07 02:59:10;;;;;;;9.52;3.25;;;4.60;96.00;;;;;;5071559;28;20028;-71
2022/01/07 03:01:38;;;;;;;13.15;3.40;;;4.70;96.10;;;;;;5071336;28;20064;-71
2022/01/07 03:04:04;;;;;;;17.55;3.75;;;4.70;95.90;;;;;;5070898;28;20048;-72
2022/01/07 03:06:30;;;;;;;20.45;3.63;;;4.70;96.00;;;;;;5071083;28;20036;-72
2022/01/07 03:08:56;;;;;;;12.07;3.08;;;4.70;95.90;;;;;;5071595;28;20012;-72
2022/01/07 03:11:23;;;;;;;17.05;3.85;;;4.70;96.00;;;;;;5071314;28;20078;-72
2022/01/07 03:13:49;;;;;;;15.95;3.38;;;4.70;95.90;;;;;;5071304;28;20105;-72
2022/01/07 03:16:14;;;;;;;25.05;4.20;;;4.70;95.90;;;;;;5070060;28;20029;-72
2022/01/07 03:18:40;;;;;;;25.52;4.32;;;4.70;95.90;;;;;;5071416;28;20028;-72
2022/01/07 03:21:06;;;;;;;17.13;3.80;;;4.60;95.90;;;;;;5070662;28;20071;-71
2022/01/07 03:23:32;;;;;;;13.20;3.60;;;4.70;96.00;;;;;;5071035;28;20024;-70
2022/01/07 03:25:58;;;;;;;11.88;3.40;;;4.80;95.90;;;;;;5070986;28;20036;-72
2022/01/07 03:28:24;;;;;;;15.00;3.47;;;4.80;95.80;;;;;;5070516;28;20097;-72
2022/01/07 03:30:50;;;;;;;11.38;3.65;;;4.70;95.70;;;;;;5069957;28;20369;-72
2022/01/07 03:33:15;;;;;;;11.38;3.35;;;4.80;95.70;;;;;;5071451;28;20036;-72
2022/01/07 03:35:41;;;;;;;9.82;3.53;;;4.70;95.70;;;;;;5071133;28;20058;-71
2022/01/07 03:38:08;;;;;;;9.48;3.28;;;4.80;95.80;;;;;;5069402;28;20033;-73
2022/01/07 03:40:35;;;;;;;17.92;4.20;;;4.70;95.60;;;;;;5069702;28;20120;-72
2022/01/07 03:43:01;;;;;;;17.33;3.70;;;4.80;95.60;;;;;;5070207;28;20140;-73
2022/01/07 03:45:26;;;;;;;16.10;3.70;;;4.80;95.60;;;;;;5070320;28;20020;-72
2022/01/07 03:47:53;;;;;;;12.40;3.50;;;4.80;95.60;;;;;;5071223;28;20013;-72
2022/01/07 03:50:25;;;;;;;12.18;3.42;;;4.80;95.50;;;;;;5069740;28;20056;-72
2022/01/07 03:52:51;;;;;;;12.50;3.40;;;4.80;95.70;;;;;;5070832;28;20046;-71
2022/01/07 03:55:20;;;;;;;18.75;4.43;;;4.80;95.60;;;;;;5069792;28;20028;-72
2022/01/07 03:57:46;;;;;;;15.10;3.47;;;4.80;95.70;;;;;;5070374;28;20029;-72
2022/01/07 04:00:15;;;;;;;12.93;3.15;;;4.80;95.50;;;;;;5071304;28;20027;-71
2022/01/07 04:02:42;;;;;;;14.35;3.38;;;4.80;95.50;;;;;;5070467;28;20104;-71
2022/01/07 04:05:08;;;;;;;14.75;3.50;;;4.80;95.50;;;;;;5071349;28;20078;-73
2022/01/07 04:07:33;;;;;;;16.80;3.30;;;4.80;95.50;;;;;;5070631;28;20036;-72
2022/01/07 04:09:59;;;;;;;10.95;3.35;;;4.90;95.50;;;;;;5071208;28;20123;-71
2022/01/07 04:12:26;;;;;;;15.07;3.70;;;4.80;95.50;;;;;;5071082;28;20028;-72
2022/01/07 04:15:02;;;;;;;13.93;3.50;;;4.80;95.50;;;;;;5072776;28;20481;-71
2022/01/07 04:17:28;;;;;;;21.70;3.80;;;4.90;95.60;;;;;;5070806;28;20041;-73
2022/01/07 04:19:54;;;;;;;14.27;3.75;;;4.90;95.60;;;;;;5074765;28;20051;-74
2022/01/07 04:22:20;;;;;;;11.15;3.67;;;4.90;95.40;;;;;;5075006;28;20052;-72
2022/01/07 04:24:45;;;;;;;13.73;3.55;;;4.90;95.80;;;;;;5073646;28;20070;-72
2022/01/07 04:27:11;;;;;;;12.60;3.10;;;5.00;95.30;;;;;;5072302;28;20025;-73
2022/01/07 04:29:36;;;;;;;15.45;2.95;;;4.90;95.20;;;;;;5068954;28;20490;-72
2022/01/07 04:32:04;;;;;;;16.00;3.85;;;4.90;95.30;;;;;;5070386;28;20432;-71
2022/01/07 04:34:29;;;;;;;17.85;4.20;;;4.90;95.30;;;;;;5070167;28;20481;-73
2022/01/07 04:36:55;;;;;;;13.73;3.30;;;4.90;95.20;;;;;;5073795;28;20032;-72
2022/01/07 04:39:21;;;;;;;14.63;3.47;;;5.00;95.30;;;;;;5073949;28;20507;-72
2022/01/07 04:41:46;;;;;;;9.30;3.17;;;4.90;95.20;;;;;;5074254;28;20525;-73
2022/01/07 04:44:12;;;;;;;15.20;3.58;;;5.00;95.20;;;;;;5074274;28;20037;-71
2022/01/07 04:46:38;;;;;;;14.68;2.85;;;5.00;95.00;;;;;;5073605;28;20040;-72
2022/01/07 04:49:04;;;;;;;10.10;3.20;;;5.00;94.80;;;;;;5073582;28;20106;-72
2022/01/07 04:51:29;;;;;;;11.27;3.25;;;5.00;94.90;;;;;;5074199;28;20111;-72
2022/01/07 04:53:55;;;;;;;11.00;2.85;;;5.00;95.00;;;;;;5074165;28;20067;-72
2022/01/07 04:56:21;;;;;;;14.82;2.92;;;5.00;94.80;;;;;;5074604;28;20040;-73
2022/01/07 04:58:47;;;;;;;11.88;2.92;;;5.10;94.60;;;;;;5073426;28;20056;-72
2022/01/07 05:01:12;;;;;;;13.38;3.20;;;5.10;94.50;;;;;;5074117;28;20032;-72
2022/01/07 05:03:38;;;;;;;9.52;2.78;;;5.10;94.40;;;;;;5073952;28;20039;-72
2022/01/07 05:06:29;;;;;;;13.45;3.17;;;5.20;94.40;;;;;;5073215;28;20493;-73
2022/01/07 05:08:49;;;;;;;11.43;3.15;;;5.20;94.30;;;;;;5073251;28;20082;-72
2022/01/07 05:11:15;;;;;;;17.67;3.30;;;5.10;94.10;;;;;;5072991;28;20037;-71
2022/01/07 05:13:40;;;;;;;11.27;2.70;;;5.20;94.10;;;;;;5073665;28;20141;-71
2022/01/07 05:16:06;;;;;;;8.90;2.83;;;5.20;94.00;;;;;;5073570;28;20434;-72
2022/01/07 05:18:32;;;;;;;14.45;3.10;;;5.20;94.00;;;;;;5073451;28;20104;-72
2022/01/07 05:20:58;;;;;;;8.05;3.33;;;5.20;93.90;;;;;;5072479;28;20111;-71
2022/01/07 05:23:24;;;;;;;10.32;3.10;;;5.30;94.00;;;;;;5073613;28;20521;-70
2022/01/07 05:25:50;;;;;;;12.63;3.95;;;5.20;93.90;;;;;;5073345;28;20297;-72
2022/01/07 05:28:15;;;;;;;11.32;3.65;;;5.20;94.10;;;;;;5073507;28;20033;-72
2022/01/07 05:30:41;;;;;;;15.27;4.22;;;5.20;94.10;;;;;;5072390;28;20026;-72
2022/01/07 05:33:07;;;;;;;14.13;3.80;;;5.20;94.20;;;;;;5073935;28;20127;-72
2022/01/07 05:35:32;;;;;;;12.13;3.13;;;5.00;94.30;;;;;;5073556;28;20039;-73
2022/01/07 05:37:58;;;;;;;14.25;3.35;;;5.00;94.50;;;;;;5073285;28;20049;-72
2022/01/07 05:40:23;;;;;;;16.17;3.67;;;5.00;94.60;;;;;;5073391;28;20367;-73
2022/01/07 05:42:49;;;;;;;14.38;3.72;;;5.10;94.90;;;;;;5071885;28;20044;-72
2022/01/07 05:45:15;;;;;;;9.43;3.30;;;5.10;94.90;;;;;;5073210;28;20020;-72
2022/01/07 05:47:41;;;;;;;9.63;3.30;;;5.10;94.80;;;;;;5072189;28;20101;-71
2022/01/07 05:50:07;;;;;;;14.10;3.53;;;5.00;95.00;;;;;;5071542;28;20115;-73
2022/01/07 05:52:33;;;;;;;16.38;4.32;;;5.10;95.00;;;;;;5072770;28;20036;-73
2022/01/07 05:54:58;;;;;;;12.93;4.13;;;5.00;95.00;;;;;;5072435;28;20035;-72
2022/01/07 05:57:24;;;;;;;12.27;3.40;;;5.00;95.00;;;;;;5073096;28;20513;-72
2022/01/07 05:59:49;;;;;;;14.55;3.33;;;5.00;94.90;;;;;;5073371;28;20636;-72
2022/01/07 06:02:15;;;;;;;19.17;3.70;;;5.00;94.90;;;;;;5071625;28;20474;-72
2022/01/07 06:04:41;;;;;;;13.15;3.60;;;4.90;95.00;;;;;;5072044;28;20109;-72
2022/01/07 06:07:06;;;;;;;10.77;3.42;;;5.00;94.90;;;;;;5072886;28;20071;-71
2022/01/07 06:09:33;;;;;;;12.48;3.92;;;5.10;95.00;;;;;;5071241;28;20430;-72
2022/01/07 06:11:59;;;;;;;13.52;3.67;;;5.10;94.90;;;;;;5073020;28;20021;-72
2022/01/07 06:14:24;;;;;;;15.65;3.92;;;5.10;95.00;;;;;;5072789;28;20335;-72
2022/01/07 06:16:50;;;;;;;14.02;3.92;;;5.10;94.90;;;;;;5071179;28;20108;-72
2022/01/07 06:19:15;;;;;;;12.82;3.20;;;5.10;94.90;;;;;;5070431;28;20106;-71
2022/01/07 06:21:41;;;;;;;7.47;3.20;;;5.10;95.00;;;;;;5069635;28;20017;-72
2022/01/07 06:24:07;;;;;;;12.90;3.83;;;5.10;95.20;;;;;;5070001;28;20021;-72
2022/01/07 06:26:32;;;;;;;16.45;3.85;;;5.20;95.10;;;;;;5072351;28;20100;-72
2022/01/07 06:28:58;;;;;;;14.40;3.47;;;5.10;95.10;;;;;;5072248;28;20020;-72
2022/01/07 06:31:24;;;;;;;13.45;3.58;;;5.10;95.10;;;;;;5071026;28;20374;-72
2022/01/07 06:33:49;;;;;;;12.35;4.13;;;5.20;95.30;;;;;;5071052;28;20365;-72
2022/01/07 06:36:15;;;;;;;11.63;3.45;;;5.20;95.20;;;;;;5056634;28;20032;-73
2022/01/07 06:38:40;;;;;;;11.05;3.50;;;5.20;95.20;;;;;;5052209;28;20036;-73
2022/01/07 06:41:07;;;;;;;19.45;5.00;;;5.20;95.20;;;;;;5051916;28;20347;-72
2022/01/07 06:43:33;;;;;;;9.68;4.00;;;5.10;95.10;;;;;;5068883;28;20102;-73
2022/01/07 06:45:59;;;;;;;18.23;5.10;;;5.20;95.20;;;;;;5068216;28;20045;-73
2022/01/07 06:48:25;;;;;;;19.67;4.72;;;5.20;95.40;;;;;;5070001;28;20051;-72
2022/01/07 06:50:51;;;;;;;11.45;4.55;;;5.10;95.40;;;;;;5071133;28;20031;-71
2022/01/07 06:53:16;;;;;;;18.80;4.38;;;5.10;95.50;;;;;;5071734;28;20202;-73
2022/01/07 06:55:42;;;;;;;18.35;3.70;;;5.10;95.70;;;;;;5068776;28;20056;-72
2022/01/07 06:58:07;;;;;;;9.32;3.83;;;5.10;95.80;;;;;;5071550;28;20024;-72
2022/01/07 07:00:33;;;;;;;19.05;4.20;;;5.00;95.80;;;;;;5069297;28;20036;-72
2022/01/07 07:02:58;;;;;;;16.75;4.03;;;5.10;96.10;;;;;;5054581;28;20071;-72
2022/01/07 07:05:24;;;;;;;10.43;3.92;;;4.90;96.30;;;;;;5071504;28;20021;-71
2022/01/07 07:07:50;;;;;;;12.93;4.80;;;4.90;96.50;;;;;;5068504;28;20029;-72
2022/01/07 07:10:16;;;;;;;14.48;4.18;;;4.90;96.70;;;;;;5067341;28;20029;-72
2022/01/07 07:12:42;;;;;;;13.98;4.25;;;4.90;97.00;;;;;;5071114;28;21044;-73
2022/01/07 07:15:08;;;;;;;11.18;4.25;;;4.90;97.20;;;;;;5069876;28;20024;-73
2022/01/07 07:17:34;;;;;;;9.63;4.07;;;4.80;97.30;;;;;;5066254;28;20131;-73
2022/01/07 07:20:00;;;;;;;15.18;5.57;;;4.80;97.60;;;;;;5070657;28;20085;-74
2022/01/07 07:22:26;;;;;;;14.52;5.60;;;4.70;97.80;;;;;;5066697;28;20044;-72
2022/01/07 07:24:52;;;;;;;17.25;5.57;;;4.70;98.00;;;;;;5063897;28;20036;-73
2022/01/07 07:27:17;;;;;;;17.10;4.97;;;4.70;98.20;;;;;;5051819;28;20052;-71
2022/01/07 07:29:43;;;;;;;11.25;4.88;;;4.70;98.40;;;;;;5051231;28;20108;-72
2022/01/07 07:32:10;;;;;;;15.02;5.53;;;4.60;98.80;;;;;;5051324;28;20131;-73
2022/01/07 07:37:05;;;;;;;15.43;5.07;;;4.60;98.90;;;;;;5053515;28;20033;-72
2022/01/07 07:39:31;;;;;;;15.13;5.05;;;4.60;99.00;;;;;;5050785;28;20025;-69
2022/01/07 07:41:57;;;;;;;11.90;5.13;;;4.50;99.10;;;;;;5051695;28;20009;-72
2022/01/07 07:44:23;;;;;;;11.18;4.95;;;4.50;99.20;;;;;;5057859;28;20468;-71
2022/01/07 07:46:49;;;;;;;18.05;4.72;;;4.50;99.30;;;;;;5070708;28;20036;-71
2022/01/07 07:49:15;;;;;;;12.07;4.45;;;4.60;99.30;;;;;;5070697;28;20051;-70
2022/01/07 07:51:41;;;;;;;19.20;5.00;;;4.60;99.30;;;;;;5070990;28;20024;-70
2022/01/07 07:54:08;;;;;;;14.30;4.53;;;4.60;99.30;;;;;;5070289;28;20116;-71
2022/01/07 07:56:34;;;;;;;10.27;4.33;;;4.60;99.30;;;;;;5066988;28;20147;-74
2022/01/07 07:59:00;;;;;;;11.45;4.45;;;4.60;99.40;;;;;;5069855;28;20077;-72
2022/01/07 08:01:27;;;;;;;11.55;4.30;;;4.70;99.30;;;;;;5070558;28;20468;-71
2022/01/07 08:03:52;;;;;;;11.60;4.38;;;4.70;99.30;;;;;;5068810;28;20101;-69
2022/01/07 08:06:19;;;;;;;14.02;4.75;;;4.70;99.40;;;;;;5070789;28;20036;-70
2022/01/07 08:08:46;;;;;;;12.18;4.57;;;4.70;99.40;;;;;;5068819;28;20093;-71
2022/01/07 08:11:12;;;;;;;9.63;4.07;;;4.70;99.30;;;;;;5068423;28;20032;-70
2022/01/07 08:16:26;;;;;;;10.95;4.35;;;4.70;99.40;;;;;;5070294;28;20234;-70
2022/01/07 08:18:53;;;;;;;10.98;4.80;;;4.70;99.40;;;;;;5070479;28;20036;-70
2022/01/07 08:21:20;;;;;;;10.90;3.80;;;4.80;99.50;;;;;;5071222;28;20458;-71
2022/01/07 08:23:46;;;;;;;7.97;3.83;;;4.70;99.30;;;;;;5070685;28;20085;-71
2022/01/07 08:26:15;;;;;;;10.95;4.40;;;4.70;99.20;;;;;;5069865;28;20028;-71
2022/01/07 08:28:46;;;;;;;10.57;4.50;;;4.70;99.20;;;;;;5069393;28;20055;-71
2022/01/07 08:36:26;;;;;;;8.85;3.67;;;4.80;99.20;;;;;;5070221;28;20134;-73
2022/01/07 08:38:53;;;;;;;10.93;4.47;;;4.80;99.00;;;;;;5070908;28;20470;-73
2022/01/07 08:41:21;;;;;;;10.80;4.43;;;4.80;99.00;;;;;;5069845;28;20060;-74
2022/01/07 08:43:47;;;;;;;4.82;3.17;;;4.80;98.90;;;;;;5070931;28;20032;-72
2022/01/07 08:46:12;;;;;;;11.93;4.05;;;4.90;98.90;;;;;;5070264;28;20362;-73
2022/01/07 08:48:38;;;;;;;14.82;5.55;;;4.80;98.90;;;;;;5070981;28;20024;-73
2022/01/07 08:51:07;;;;;;;14.50;4.47;;;4.80;98.90;;;;;;5071583;28;20060;-75
2022/01/07 08:53:33;;;;;;;10.25;4.43;;;4.80;98.80;;;;;;5070140;28;20044;-75
2022/01/07 08:55:59;;;;;;;7.03;3.67;;;4.90;98.90;;;;;;5070516;28;20037;-74
2022/01/07 08:58:25;;;;;;;6.85;3.60;;;5.00;98.90;;;;;;5068456;28;20169;-73
2022/01/07 09:00:50;;;;;;;11.55;4.15;;;4.90;98.50;;;;;;5068938;28;20048;-72
2022/01/07 09:03:16;;;;;;;9.98;3.80;;;4.90;98.50;;;;;;5070299;28;20477;-77
2022/01/07 09:05:42;;;;;;;9.57;3.67;;;4.90;98.50;;;;;;5068434;28;20087;-76
2022/01/07 09:08:10;;;;;;;12.18;3.90;;;4.90;98.50;;;;;;5069410;28;20098;-81
2022/01/07 09:10:36;;;;;;;11.70;4.10;;;5.10;99.50;;;;;;5069613;28;20037;-75
2022/01/07 09:13:02;;;;;;;7.25;3.63;;;5.10;98.30;;;;;;5068957;28;20035;-78
2022/01/07 09:15:28;;;;;;;8.07;3.95;;;5.10;98.40;;;;;;5069232;28;20119;-76
2022/01/07 09:17:53;;;;;;;11.80;4.47;;;5.00;98.40;;;;;;5068480;28;20047;-75
2022/01/07 09:20:21;;;;;;;8.40;3.85;;;5.00;98.30;;;;;;5069051;28;20351;-77
2022/01/07 09:22:47;;;;;;;13.50;4.07;;;5.00;98.40;;;;;;5071047;28;20032;-76
2022/01/07 09:25:12;;;;;;;12.20;3.58;;;5.10;98.40;;;;;;5071334;28;20450;-76
2022/01/07 09:27:40;;;;;;;9.73;4.03;;;5.00;98.30;;;;;;5071745;28;20123;-73
2022/01/07 09:30:07;;;;;;;8.98;3.65;;;5.00;98.30;;;;;;5073864;28;20016;-77
2022/01/07 09:32:33;;;;;;;8.23;3.85;;;5.00;98.30;;;;;;5073731;28;20032;-78
2022/01/07 09:34:59;;;;;;;9.68;4.00;;;5.00;98.30;;;;;;5072938;28;20028;-76
2022/01/07 09:37:24;;;;;;;6.63;3.75;;;5.00;98.30;;;;;;5072200;28;20370;-75
2022/01/07 09:39:50;;;;;;;10.95;4.25;;;5.10;98.40;;;;;;5072107;28;20100;-77
2022/01/07 09:42:16;;;;;;;7.97;3.83;;;5.10;98.40;;;;;;5073222;28;20029;-73
2022/01/07 09:44:43;;;;;;;11.60;3.80;;;5.10;98.50;;;;;;5072936;28;20037;-73
2022/01/07 09:47:11;;;;;;;9.48;3.78;;;5.10;98.40;;;;;;5070511;28;20045;-76
2022/01/07 09:49:41;;;;;;;6.07;3.22;;;5.20;98.40;;;;;;5073452;28;20106;-76
2022/01/07 09:52:08;;;;;;;7.20;3.83;;;5.20;98.40;;;;;;5072373;28;20025;-76
2022/01/07 09:54:37;;;;;;;10.95;4.05;;;5.20;98.40;;;;;;5073053;28;20036;-75
2022/01/07 09:57:04;;;;;;;9.65;3.80;;;5.20;98.40;;;;;;5073159;28;20104;-75
2022/01/07 09:59:30;;;;;;;11.85;3.75;;;5.20;98.40;;;;;;5072723;28;20032;-80
2022/01/07 10:02:03;;;;;;;7.90;3.58;;;5.20;98.40;;;;;;5071584;28;20729;-77
2022/01/07 10:04:40;;;;;;;9.68;3.55;;;5.20;98.40;;;;;;5072952;28;20111;-77
2022/01/07 10:07:13;;;;;;;8.65;4.05;;;5.20;98.40;;;;;;5072493;28;20124;-74
2022/01/07 10:09:39;;;;;;;9.45;3.50;;;5.30;98.40;;;;;;5072720;28;20078;-76
2022/01/07 10:12:07;;;;;;;6.32;3.35;;;5.30;98.30;;;;;;5071913;28;20036;-75
2022/01/07 10:14:32;;;;;;;9.23;3.55;;;5.30;98.30;;;;;;5072955;28;20116;-76
2022/01/07 10:17:00;;;;;;;7.47;3.05;;;5.20;98.30;;;;;;5072612;28;20592;-76
2022/01/07 10:19:45;;;;;;;5.55;3.13;;;5.30;98.40;;;;;;5071421;28;20409;-75
2022/01/07 10:22:13;;;;;;;7.05;3.60;;;5.30;98.40;;;;;;5072904;28;20036;-75
2022/01/07 10:24:58;;;;;;;7.63;3.40;;;5.30;98.40;;;;;;5071996;28;20344;-77
2022/01/07 10:27:34;;;;;;;14.00;4.88;;;5.40;98.40;;;;;;5071874;28;20122;-75
2022/01/07 10:30:00;;;;;;;12.35;4.13;;;5.30;98.30;;;;;;5071277;28;20448;-75
2022/01/07 10:32:29;;;;;;;8.95;3.58;;;5.30;98.30;;;;;;5070608;28;20029;-75
2022/01/07 10:35:16;;;;;;;10.35;5.47;;;5.30;98.40;;;;;;5071752;28;20538;-75
2022/01/07 10:37:45;;;;;;;5.73;3.50;;;5.40;98.50;;;;;;5072474;28;20638;-76
2022/01/07 10:40:26;;;;;;;5.07;2.92;;;5.50;98.40;;;;;;5071570;28;20743;-76
2022/01/07 10:43:08;;;;;;;7.03;3.33;;;5.40;98.30;;;;;;5071927;28;20166;-75
2022/01/07 10:45:34;;;;;;;6.53;3.42;;;5.40;98.40;;;;;;5071894;28;20087;-74
2022/01/07 10:48:00;;;;;;;7.20;3.88;;;5.50;98.40;;;;;;5060624;28;20025;-75
2022/01/07 10:50:27;;;;;;;9.27;3.28;;;5.40;98.40;;;;;;5069147;28;20029;-79
2022/01/07 10:53:29;;;;;;;8.65;3.65;;;5.40;98.50;;;;;;5072571;28;20036;-77
2022/01/07 10:56:03;;;;;;;11.73;3.95;;;5.40;98.50;;;;;;5072189;28;20033;-80
2022/01/07 10:58:50;;;;;;;8.65;3.88;;;5.40;98.40;;;;;;5071772;28;20036;-78
2022/01/07 11:01:22;;;;;;;10.80;3.15;;;5.40;98.50;;;;;;5072317;28;20462;-78
2022/01/07 11:03:53;;;;;;;6.78;3.40;;;5.50;98.60;;;;;;5071184;28;20090;-78
2022/01/07 11:06:19;;;;;;;5.90;3.15;;;5.40;98.60;;;;;;5072167;28;20352;-77
2022/01/07 11:08:48;;;;;;;9.68;3.75;;;5.50;98.60;;;;;;5067147;28;20040;-75
2022/01/07 11:11:14;;;;;;;6.70;3.35;;;5.50;98.60;;;;;;5063604;28;20044;-75
2022/01/07 11:13:41;;;;;;;8.35;3.80;;;5.50;98.60;;;;;;5071851;28;20024;-74
2022/01/07 11:16:07;;;;;;;9.77;3.10;;;5.50;98.60;;;;;;5071066;28;20095;-75
2022/01/07 11:18:36;;;;;;;12.23;3.70;;;5.50;98.60;;;;;;5071073;28;20029;-74
2022/01/07 11:21:03;;;;;;;7.93;3.70;;;5.50;98.70;;;;;;5070669;28;20027;-74
2022/01/07 11:23:30;;;;;;;9.82;3.80;;;5.50;98.70;;;;;;5071163;28;20036;-74
2022/01/07 11:26:08;;;;;;;10.45;3.90;;;5.40;98.80;;;;;;5071064;28;20040;-73
2022/01/07 11:28:34;;;;;;;11.77;4.15;;;5.40;98.90;;;;;;5070634;28;20196;-73
2022/01/07 11:31:11;;;;;;;9.60;3.95;;;5.40;98.90;;;;;;5070959;28;20059;-73
2022/01/07 11:33:37;;;;;;;10.00;4.40;;;5.50;98.90;;;;;;5070943;28;20067;-72
2022/01/07 11:36:03;;;;;;;12.07;4.00;;;5.50;98.90;;;;;;5070704;28;20052;-71
2022/01/07 11:39:00;;;;;;;7.53;3.85;;;5.60;99.40;;;;;;5069355;28;20140;-72
2022/01/07 11:41:58;;;;;;;5.65;3.35;;;5.60;98.90;;;;;;5070237;28;20040;-71
2022/01/07 11:44:29;;;;;;;12.40;4.15;;;5.60;98.90;;;;;;5053286;28;20043;-73
2022/01/07 11:47:12;;;;;;;10.25;4.15;;;5.70;99.00;;;;;;5069768;28;20033;-70
2022/01/07 11:49:39;;;;;;;7.82;4.40;;;5.70;98.90;;;;;;5069824;28;20051;-71
2022/01/07 11:52:27;;;;;;;12.63;4.65;;;5.70;99.00;;;;;;5070250;28;20032;-71
2022/01/07 11:55:30;;;;;;;6.13;3.72;;;5.70;98.80;;;;;;5068405;28;20025;-71
2022/01/07 11:58:05;;;;;;;14.20;4.53;;;5.90;98.90;;;;;;5048156;28;20021;-71
2022/01/07 12:00:49;;;;;;;6.95;4.25;;;5.80;98.90;;;;;;5066645;28;20120;-73
2022/01/07 12:03:36;;;;;;;9.27;4.22;;;5.80;98.90;;;;;;5071579;28;20047;-70
2022/01/07 12:06:21;;;;;;;10.32;4.43;;;5.80;98.80;;;;;;5071464;28;20381;-71
2022/01/07 12:09:38;;;;;;;10.25;4.50;;;5.80;99.00;;;;;;5069904;28;20024;-72
2022/01/07 12:12:01;;;;;;;8.02;3.50;;;5.80;98.80;;;;;;5051669;28;20098;-74
2022/01/07 12:14:33;;;;;;;11.00;4.35;;;5.90;98.80;;;;;;5050643;28;20101;-72
2022/01/07 12:17:02;;;;;;;8.30;4.40;;;5.90;98.90;;;;;;5050689;28;20408;-72
2022/01/07 12:19:36;;;;;;;9.93;4.47;;;5.80;98.60;;;;;;5056751;28;20036;-71
2022/01/07 12:22:07;;;;;;;8.13;4.10;;;5.90;98.80;;;;;;5070290;28;20040;-71
2022/01/07 12:24:33;;;;;;;9.27;4.50;;;5.90;98.80;;;;;;5069283;28;20454;-70
2022/01/07 12:27:07;;;;;;;13.05;4.65;;;5.90;98.70;;;;;;5069878;28;20021;-70
2022/01/07 12:29:36;;;;;;;10.93;4.55;;;5.90;98.60;;;;;;5070336;28;20029;-70
2022/01/07 12:32:04;;;;;;;9.75;4.43;;;5.90;98.50;;;;;;5069081;28;20025;-72
2022/01/07 12:34:35;;;;;;;12.15;4.57;;;5.90;98.50;;;;;;5070778;28;20041;-73
2022/01/07 12:37:07;;;;;;;15.95;4.63;;;5.90;98.60;;;;;;5070618;28;20033;-72
2022/01/07 12:39:43;;;;;;;10.27;4.80;;;5.90;98.60;;;;;;5070836;28;20052;-70
2022/01/07 12:42:10;;;;;;;10.38;4.80;;;5.90;98.70;;;;;;5071107;28;20038;-71
2022/01/07 12:44:40;;;;;;;11.30;4.72;;;5.90;98.70;;;;;;5069198;28;20059;-72
2022/01/07 12:47:08;;;;;;;9.60;4.50;;;5.90;98.50;;;;;;5069603;28;20074;-72
2022/01/07 12:49:37;;;;;;;9.02;4.85;;;5.90;98.50;;;;;;5070394;28;20048;-71
2022/01/07 12:52:05;;;;;;;7.07;4.30;;;5.90;98.50;;;;;;5071990;28;20166;-71
2022/01/07 12:54:30;;;;;;;13.55;4.88;;;6.00;98.60;;;;;;5069988;28;20021;-71
2022/01/07 12:56:56;;;;;;;12.05;4.30;;;6.00;98.50;;;;;;5071963;28;20035;-74
2022/01/07 12:59:24;;;;;;;11.00;5.35;;;6.00;98.50;;;;;;5075002;28;20040;-71
2022/01/07 13:01:50;;;;;;;10.40;4.38;;;6.00;98.50;;;;;;5073914;28;20090;-72
2022/01/07 13:04:22;;;;;;;14.52;6.38;;;6.00;98.40;;;;;;5072710;28;20040;-72